Time;durP1;ratioP1;P1;durP2;ratioP2;P2;SDS_P1;SDS_P2;PMS_P1;PMS_P2;Temp;Humidity;BMP_temperature;BMP_pressure;BME280_temperature;BME280_humidity;BME280_pressure;Samples;Min_cycle;Max_cycle;Signal;HPM_P1;HPM_P2
2023/11/03 00:01:48;;;;;;;1.00;1.00;;;;;;;2.47;95.02;95769.59;5010990;28;20038;-77
2023/11/03 00:04:13;;;;;;;0.82;0.82;;;;;;;2.52;95.23;95762.63;5005992;28;20872;-78
2023/11/03 00:06:43;;;;;;;1.00;1.00;;;;;;;2.27;95.15;95766.72;5005654;28;20160;-78
2023/11/03 00:09:11;;;;;;;0.80;0.80;;;;;;;2.18;94.79;95763.06;5007524;28;20083;-78
2023/11/03 00:11:36;;;;;;;0.90;0.90;;;;;;;2.22;94.70;95747.34;5013257;28;20042;-78
2023/11/03 00:14:04;;;;;;;0.90;0.90;;;;;;;2.34;94.68;95749.25;4991896;28;20106;-77
2023/11/03 00:16:30;;;;;;;0.98;0.98;;;;;;;2.44;94.75;95750.25;5009018;28;20487;-78
2023/11/03 00:19:00;;;;;;;0.90;0.90;;;;;;;2.50;94.38;95747.72;5009471;28;20084;-78
2023/11/03 00:21:27;;;;;;;0.90;0.90;;;;;;;2.40;94.40;95751.09;5008801;28;20042;-78
2023/11/03 00:23:52;;;;;;;0.90;0.90;;;;;;;2.16;94.73;95749.91;5003627;28;20034;-78
2023/11/03 00:26:18;;;;;;;1.00;1.00;;;;;;;1.96;94.22;95749.59;5011191;28;20494;-78
2023/11/03 00:28:49;;;;;;;1.00;1.00;;;;;;;2.15;94.27;95740.22;4982585;28;20422;-77
2023/11/03 00:31:15;;;;;;;0.90;0.90;;;;;;;2.25;94.35;95757.00;5012101;28;20052;-77
2023/11/03 00:33:41;;;;;;;0.90;0.90;;;;;;;2.15;94.49;95753.38;4986005;28;20060;-78
2023/11/03 00:36:07;;;;;;;1.00;1.00;;;;;;;1.98;94.36;95762.78;4978772;28;20036;-77
2023/11/03 00:38:32;;;;;;;1.00;1.00;;;;;;;1.86;94.51;95754.72;5007802;28;20064;-77
2023/11/03 00:40:58;;;;;;;1.00;1.00;;;;;;;1.88;94.85;95751.28;4992644;28;20030;-77
2023/11/03 00:43:24;;;;;;;0.90;0.90;;;;;;;1.82;94.36;95755.53;4991306;28;20042;-77
2023/11/03 00:45:50;;;;;;;1.00;1.00;;;;;;;2.10;95.40;95741.91;4993100;28;20034;-77
2023/11/03 00:48:17;;;;;;;0.90;0.90;;;;;;;1.69;95.33;95747.47;4993222;28;20491;-77
2023/11/03 00:50:43;;;;;;;0.95;0.95;;;;;;;1.41;95.04;95746.16;5008064;28;20034;-77
2023/11/03 00:53:09;;;;;;;0.90;0.90;;;;;;;1.63;95.14;95750.03;4994438;28;20041;-77
2023/11/03 00:55:34;;;;;;;0.90;0.90;;;;;;;1.74;95.81;95748.44;4994942;28;20034;-76
2023/11/03 00:57:59;;;;;;;0.90;0.90;;;;;;;1.52;95.73;95755.09;5008061;28;20038;-77
2023/11/03 01:00:25;;;;;;;0.90;0.90;;;;;;;1.42;95.87;95749.66;5006811;28;20038;-77
2023/11/03 01:02:51;;;;;;;0.90;0.90;;;;;;;1.39;96.25;95749.59;5005886;28;20409;-77
2023/11/03 01:05:21;;;;;;;1.00;1.00;;;;;;;1.63;96.02;95746.47;5008409;28;20056;-77
2023/11/03 01:07:48;;;;;;;1.00;1.00;;;;;;;1.61;95.72;95749.09;5004743;28;20364;-77
2023/11/03 01:10:16;;;;;;;1.00;1.00;;;;;;;1.18;95.61;95751.03;4998528;28;20262;-77
2023/11/03 01:12:44;;;;;;;1.00;1.00;;;;;;;1.12;96.09;95747.44;4993960;28;20061;-77
2023/11/03 01:15:12;;;;;;;0.90;0.90;;;;;;;1.04;96.11;95744.66;4984589;28;20033;-77
2023/11/03 01:17:39;;;;;;;1.00;1.00;;;;;;;1.31;95.80;95754.75;4992669;28;20495;-77
2023/11/03 01:20:12;;;;;;;1.00;1.00;;;;;;;1.39;95.83;95754.88;5005161;28;20050;-77
2023/11/03 01:22:41;;;;;;;0.93;0.93;;;;;;;1.20;95.63;95759.84;4993243;28;20037;-77
2023/11/03 01:25:06;;;;;;;1.00;1.00;;;;;;;1.52;96.72;95756.84;5014353;28;20053;-77
2023/11/03 01:27:32;;;;;;;1.08;1.08;;;;;;;1.17;96.74;95772.91;4981431;28;20056;-78
2023/11/03 01:29:57;;;;;;;0.90;0.90;;;;;;;1.06;96.84;95763.09;5007712;28;20037;-78
2023/11/03 01:32:23;;;;;;;1.00;1.00;;;;;;;0.92;96.85;95774.22;4999453;28;22071;-78
2023/11/03 01:34:50;;;;;;;1.00;1.00;;;;;;;1.10;96.88;95778.88;4996881;28;20091;-77
2023/11/03 01:37:15;;;;;;;;;;;;;;;1.07;96.96;95778.84;5012315;28;20081;-76
2023/11/03 01:39:41;;;;;;;1.00;1.00;;;;;;;1.11;96.95;95790.28;5011841;28;19996;-77
2023/11/03 01:42:07;;;;;;;0.95;0.95;;;;;;;1.16;96.87;95801.75;4996585;28;20060;-77
2023/11/03 01:44:34;;;;;;;1.00;1.00;;;;;;;1.55;97.29;95793.69;5011470;28;20029;-77
2023/11/03 01:46:59;;;;;;;1.10;1.10;;;;;;;1.64;97.08;95801.72;5009002;28;20045;-78
2023/11/03 01:49:25;;;;;;;1.00;1.00;;;;;;;1.83;97.22;95789.75;4992473;28;20041;-78
2023/11/03 01:51:51;;;;;;;1.00;1.00;;;;;;;1.99;97.24;95791.72;5008302;28;20048;-77
2023/11/03 01:54:17;;;;;;;1.00;1.00;;;;;;;1.95;97.03;95795.16;5008877;28;20080;-77
2023/11/03 01:56:42;;;;;;;0.93;0.93;;;;;;;1.91;97.04;95792.47;5010330;28;20882;-78
2023/11/03 01:59:08;;;;;;;1.00;1.00;;;;;;;1.83;97.17;95799.38;4993973;28;20069;-77
2023/11/03 02:01:36;;;;;;;1.00;1.00;;;;;;;1.80;97.16;95793.19;4998512;28;20163;-77
2023/11/03 02:04:02;;;;;;;1.00;1.00;;;;;;;1.84;96.89;95803.78;4993092;28;20041;-76
2023/11/03 02:06:27;;;;;;;0.95;0.95;;;;;;;1.72;97.20;95801.81;5007527;28;20038;-76
2023/11/03 02:08:53;;;;;;;0.98;0.98;;;;;;;1.69;96.83;95797.41;5008778;28;20734;-76
2023/11/03 02:11:29;;;;;;;0.90;0.90;;;;;;;1.70;96.77;95793.91;5010432;28;20502;-76
2023/11/03 02:13:55;;;;;;;0.90;0.90;;;;;;;1.74;96.88;95795.75;5006071;28;20046;-76
2023/11/03 02:16:22;;;;;;;1.10;1.10;;;;;;;1.47;96.51;95804.03;4989316;28;20096;-77
2023/11/03 02:18:48;;;;;;;1.00;1.00;;;;;;;1.33;96.58;95809.94;5010995;28;20071;-77
2023/11/03 02:21:14;;;;;;;0.90;0.90;;;;;;;1.37;97.01;95803.88;4991109;28;20082;-76
2023/11/03 02:23:40;;;;;;;1.00;1.00;;;;;;;1.36;96.95;95799.47;4991234;28;20045;-76
2023/11/03 02:26:06;;;;;;;1.00;1.00;;;;;;;1.70;96.88;95793.91;5009815;28;20050;-76
2023/11/03 02:28:31;;;;;;;1.00;1.00;;;;;;;1.84;96.85;95806.41;5010921;28;20049;-77
2023/11/03 02:30:57;;;;;;;0.90;0.90;;;;;;;1.83;96.85;95799.38;5004896;28;20468;-77
2023/11/03 02:33:22;;;;;;;1.00;1.00;;;;;;;1.87;96.83;95801.16;5008554;28;20144;-77
2023/11/03 02:35:48;;;;;;;1.00;1.00;;;;;;;1.93;96.80;95801.28;4995186;28;20033;-77
2023/11/03 02:38:16;;;;;;;1.00;1.00;;;;;;;1.77;96.76;95787.91;5009816;28;20068;-77
2023/11/03 02:40:46;;;;;;;0.95;0.95;;;;;;;1.92;96.69;95794.25;5012640;28;20037;-76
2023/11/03 02:43:12;;;;;;;0.95;0.95;;;;;;;1.84;96.54;95795.88;4994753;28;20053;-76
2023/11/03 02:45:38;;;;;;;0.90;0.90;;;;;;;1.74;96.56;95798.38;4993486;28;20045;-76
2023/11/03 02:48:05;;;;;;;0.93;0.93;;;;;;;1.61;96.48;95792.88;4981065;28;20048;-77
2023/11/03 02:50:31;;;;;;;1.10;1.10;;;;;;;1.41;96.51;95793.44;5007443;28;20041;-75
2023/11/03 02:52:56;;;;;;;1.00;1.00;;;;;;;1.48;96.56;95786.53;4984580;28;20048;-76
2023/11/03 02:55:22;;;;;;;0.95;0.95;;;;;;;1.79;95.99;95787.94;4998297;28;20041;-76
2023/11/03 02:57:47;;;;;;;0.90;0.90;;;;;;;1.70;96.35;95778.16;5011771;28;20049;-77
2023/11/03 03:00:14;;;;;;;1.00;1.00;;;;;;;1.60;96.46;95778.88;4994068;28;20049;-77
2023/11/03 03:02:40;;;;;;;1.10;1.10;;;;;;;1.52;96.30;95784.00;5007547;28;20435;-77
2023/11/03 03:05:06;;;;;;;0.93;0.93;;;;;;;1.74;96.40;95779.09;5009931;28;20025;-77
2023/11/03 03:07:32;;;;;;;1.00;1.00;;;;;;;1.74;96.53;95779.09;4992933;28;20045;-77
2023/11/03 03:09:57;;;;;;;0.90;0.90;;;;;;;1.63;96.28;95785.91;4994764;28;20103;-77
2023/11/03 03:12:22;;;;;;;0.90;0.90;;;;;;;1.61;96.24;95774.50;4979548;28;20044;-77
2023/11/03 03:14:48;;;;;;;1.00;1.00;;;;;;;1.67;96.34;95771.94;4977730;28;20092;-77
2023/11/03 03:17:13;;;;;;;1.00;1.00;;;;;;;1.64;95.91;95770.19;5006706;28;20046;-77
2023/11/03 03:19:39;;;;;;;1.00;1.00;;;;;;;1.70;96.26;95766.75;4996158;28;20892;-77
2023/11/03 03:22:04;;;;;;;0.90;0.90;;;;;;;1.84;96.13;95769.59;4995800;28;20830;-77
2023/11/03 03:24:30;;;;;;;1.00;1.00;;;;;;;1.72;96.28;95776.41;4990159;28;20041;-77
2023/11/03 03:26:55;;;;;;;0.90;0.90;;;;;;;1.86;96.36;95781.00;5005618;28;20096;-77
2023/11/03 03:29:22;;;;;;;0.98;0.98;;;;;;;1.58;96.51;95771.81;4997233;28;20054;-77
2023/11/03 03:31:47;;;;;;;1.00;1.00;;;;;;;1.44;96.57;95783.00;4995662;28;20040;-77
2023/11/03 03:34:13;;;;;;;1.00;1.00;;;;;;;1.41;96.78;95789.94;4982633;28;20483;-77
2023/11/03 03:36:38;;;;;;;0.90;0.90;;;;;;;1.48;96.47;95789.16;5005214;28;20046;-77
2023/11/03 03:39:04;;;;;;;1.00;1.00;;;;;;;1.45;96.77;95786.50;5005955;28;20033;-76
2023/11/03 03:41:30;;;;;;;0.90;0.90;;;;;;;1.50;96.52;95774.34;5003931;28;20752;-77
2023/11/03 03:43:55;;;;;;;1.00;1.00;;;;;;;1.63;96.52;95778.03;4989229;28;20495;-77
2023/11/03 03:46:21;;;;;;;0.90;0.90;;;;;;;1.62;96.68;95771.88;5005041;28;20452;-76
2023/11/03 03:48:47;;;;;;;0.90;0.90;;;;;;;1.57;96.49;95765.66;5007856;28;20140;-77
2023/11/03 03:51:13;;;;;;;0.90;0.90;;;;;;;1.60;96.29;95757.84;4991792;28;20045;-76
2023/11/03 03:53:38;;;;;;;0.90;0.90;;;;;;;1.89;96.88;95760.03;5010139;28;20395;-77
2023/11/03 03:56:04;;;;;;;0.98;0.98;;;;;;;2.01;96.36;95757.56;4989900;28;20034;-78
2023/11/03 03:58:30;;;;;;;0.90;0.90;;;;;;;1.86;96.23;95759.97;4991703;28;20038;-77
2023/11/03 04:00:55;;;;;;;0.90;0.90;;;;;;;1.96;96.34;95775.91;4995401;28;20476;-76
2023/11/03 04:03:21;;;;;;;1.10;1.10;;;;;;;1.91;96.02;95787.22;4992957;28;20469;-76
2023/11/03 04:05:46;;;;;;;1.00;1.00;;;;;;;1.95;95.92;95791.66;4967029;28;20033;-77
2023/11/03 04:08:12;;;;;;;0.90;0.90;;;;;;;1.88;96.26;95798.59;5006984;28;20034;-76
2023/11/03 04:10:37;;;;;;;0.90;0.90;;;;;;;1.95;96.26;95794.28;5011182;28;20719;-77
2023/11/03 04:13:03;;;;;;;1.00;1.00;;;;;;;2.09;96.06;95781.34;5011633;28;20044;-77
2023/11/03 04:15:28;;;;;;;1.00;1.00;;;;;;;1.99;96.21;95782.97;5007478;28;20411;-76
2023/11/03 04:17:54;;;;;;;0.90;0.90;;;;;;;2.14;96.26;95787.56;5008949;28;20464;-77
2023/11/03 04:20:19;;;;;;;1.00;1.00;;;;;;;2.17;96.13;95775.34;4992147;28;20435;-76
2023/11/03 04:22:45;;;;;;;1.00;1.00;;;;;;;2.19;96.12;95770.97;5009586;28;20402;-76
2023/11/03 04:25:10;;;;;;;1.00;1.00;;;;;;;2.29;95.83;95751.81;5010394;28;20076;-76
2023/11/03 04:27:36;;;;;;;1.00;1.00;;;;;;;2.36;95.66;95749.28;5007394;28;20041;-76
2023/11/03 04:30:01;;;;;;;0.90;0.90;;;;;;;2.48;95.66;95747.66;5009729;28;20037;-77
2023/11/03 04:32:26;;;;;;;0.98;0.98;;;;;;;2.46;95.31;95749.41;4999795;28;20602;-76
2023/11/03 04:34:52;;;;;;;0.90;0.90;;;;;;;2.48;95.38;95759.94;4993972;28;20038;-76
2023/11/03 04:37:18;;;;;;;0.90;0.90;;;;;;;2.55;95.42;95767.06;4994605;28;20570;-76
2023/11/03 04:39:43;;;;;;;1.00;1.00;;;;;;;2.59;95.06;95771.50;5005304;28;20038;-75
2023/11/03 04:42:08;;;;;;;1.00;1.00;;;;;;;2.64;95.47;95771.56;5009192;28;20046;-76
2023/11/03 04:44:34;;;;;;;0.90;0.90;;;;;;;2.68;94.93;95782.13;5009130;28;20053;-76
2023/11/03 04:46:59;;;;;;;1.00;1.00;;;;;;;2.75;94.93;95772.56;5002212;28;20030;-76
2023/11/03 04:49:26;;;;;;;1.00;1.00;;;;;;;2.88;95.14;95779.75;5007824;28;20111;-76
2023/11/03 04:51:51;;;;;;;0.90;0.90;;;;;;;2.91;94.53;95790.28;5005505;28;20057;-77
2023/11/03 04:54:17;;;;;;;0.90;0.90;;;;;;;2.90;94.40;95788.53;5006117;28;21960;-77
2023/11/03 04:56:44;;;;;;;0.90;0.90;;;;;;;3.04;94.88;95786.03;5008113;28;20029;-76
2023/11/03 04:59:10;;;;;;;0.90;0.90;;;;;;;3.06;94.86;95792.19;5006715;28;20046;-76
2023/11/03 05:01:36;;;;;;;1.00;1.00;;;;;;;3.32;94.82;95782.81;5009434;28;20447;-76
2023/11/03 05:04:02;;;;;;;0.90;0.90;;;;;;;3.24;94.49;95784.50;5005760;28;20088;-76
2023/11/03 05:06:28;;;;;;;0.90;0.90;;;;;;;3.16;94.15;95780.88;5007695;28;20038;-77
2023/11/03 05:08:53;;;;;;;0.80;0.80;;;;;;;3.40;94.35;95787.25;5008863;28;20038;-76
2023/11/03 05:11:20;;;;;;;0.80;0.80;;;;;;;3.26;93.99;95779.25;5010261;28;20041;-76
2023/11/03 05:13:45;;;;;;;0.93;0.93;;;;;;;3.23;94.50;95781.84;5007593;28;20048;-76
2023/11/03 05:16:14;;;;;;;0.90;0.90;;;;;;;3.45;94.37;95782.91;5006587;28;20038;-76
2023/11/03 05:18:40;;;;;;;0.90;0.90;;;;;;;3.48;93.75;95781.19;5003299;28;20037;-76
2023/11/03 05:21:06;;;;;;;0.80;0.80;;;;;;;3.54;93.47;95780.38;4991796;28;20064;-77
2023/11/03 05:23:31;;;;;;;0.90;0.90;;;;;;;3.53;93.56;95789.16;5009154;28;20177;-77
2023/11/03 05:25:57;;;;;;;0.80;0.80;;;;;;;3.50;93.55;95792.66;5009196;28;20045;-77
2023/11/03 05:28:22;;;;;;;0.85;0.85;;;;;;;3.58;93.53;95790.94;4995457;28;20045;-76
2023/11/03 05:30:48;;;;;;;0.90;0.90;;;;;;;3.61;93.54;95784.84;4993500;28;20046;-77
2023/11/03 05:33:17;;;;;;;0.80;0.80;;;;;;;3.62;93.48;95794.50;5002577;28;20057;-76
2023/11/03 05:35:47;;;;;;;0.90;0.90;;;;;;;3.75;93.34;95792.88;5005627;28;20042;-76
2023/11/03 05:38:13;;;;;;;0.80;0.80;;;;;;;3.68;93.65;95794.53;4987818;28;20061;-77
2023/11/03 05:40:39;;;;;;;0.80;0.80;;;;;;;3.76;93.62;95799.91;5007460;28;20068;-77
2023/11/03 05:43:04;;;;;;;0.80;0.80;;;;;;;3.82;93.76;95800.81;5007895;28;20124;-76
2023/11/03 05:45:30;;;;;;;0.80;0.80;;;;;;;3.88;93.48;95802.66;5004752;28;20087;-76
2023/11/03 05:47:55;;;;;;;0.80;0.80;;;;;;;3.90;93.79;95795.63;4988663;28;20046;-77
2023/11/03 05:50:21;;;;;;;0.70;0.70;;;;;;;3.86;93.66;95799.97;5000792;28;20043;-77
2023/11/03 05:52:46;;;;;;;0.80;0.80;;;;;;;3.98;93.56;95806.22;5006706;28;20091;-77
2023/11/03 05:55:12;;;;;;;0.80;0.80;;;;;;;3.93;93.73;95815.84;5004649;28;20033;-76
2023/11/03 05:57:37;;;;;;;0.70;0.70;;;;;;;3.97;93.84;95818.50;4995308;28;20034;-77
2023/11/03 06:00:10;;;;;;;0.80;0.80;;;;;;;3.97;93.60;95822.91;5004411;28;20041;-76
2023/11/03 06:02:36;;;;;;;0.80;0.80;;;;;;;3.96;94.13;95832.56;5004835;28;20113;-76
2023/11/03 06:05:03;;;;;;;0.80;0.80;;;;;;;3.99;93.87;95831.72;5005102;28;20053;-77
2023/11/03 06:07:29;;;;;;;0.90;0.90;;;;;;;4.21;93.50;95828.34;5008005;28;20034;-76
2023/11/03 06:09:56;;;;;;;0.80;0.80;;;;;;;4.21;93.16;95833.63;5009498;28;20057;-76
2023/11/03 06:12:21;;;;;;;0.88;0.88;;;;;;;4.24;93.48;95838.06;5011596;28;20136;-77
2023/11/03 06:14:46;;;;;;;0.80;0.80;;;;;;;4.29;93.91;95837.22;5009751;28;20514;-77
2023/11/03 06:17:12;;;;;;;0.80;0.80;;;;;;;4.31;94.02;95846.03;5009305;28;20049;-77
2023/11/03 06:19:37;;;;;;;0.80;0.80;;;;;;;4.32;93.50;95844.28;4994640;28;20034;-77
2023/11/03 06:22:03;;;;;;;0.70;0.70;;;;;;;4.34;93.51;95846.03;5009290;28;20034;-77
2023/11/03 06:24:28;;;;;;;0.80;0.80;;;;;;;4.33;93.52;95849.56;5013891;28;20029;-77
2023/11/03 06:26:59;;;;;;;0.80;0.80;;;;;;;4.46;93.34;95854.94;5010525;28;20045;-77
2023/11/03 06:29:25;;;;;;;0.80;0.80;;;;;;;4.53;92.88;95854.97;4993215;28;20029;-77
2023/11/03 06:31:51;;;;;;;0.90;0.90;;;;;;;4.55;92.98;95863.81;5009287;28;20042;-78
2023/11/03 06:34:16;;;;;;;0.80;0.80;;;;;;;4.51;92.92;95861.13;5007292;28;20061;-77
2023/11/03 06:36:42;;;;;;;0.80;0.80;;;;;;;4.54;92.56;95867.28;5013041;28;20037;-77
2023/11/03 06:39:07;;;;;;;0.70;0.70;;;;;;;4.59;92.19;95875.25;5008641;28;20377;-77
2023/11/03 06:41:33;;;;;;;0.80;0.80;;;;;;;4.52;92.03;95887.53;5006690;28;20049;-77
2023/11/03 06:43:58;;;;;;;0.70;0.70;;;;;;;4.48;92.60;95882.22;5009931;28;20044;-77
2023/11/03 06:46:24;;;;;;;0.80;0.80;;;;;;;4.42;92.32;95890.09;5008423;28;20042;-77
2023/11/03 06:48:50;;;;;;;0.80;0.80;;;;;;;4.43;92.60;95891.88;4998880;28;20029;-77
2023/11/03 06:51:16;;;;;;;0.80;0.80;;;;;;;4.52;92.06;95892.81;5008100;28;20104;-77
2023/11/03 06:53:43;;;;;;;0.85;0.85;;;;;;;4.48;92.55;95888.38;5012240;28;20038;-78
2023/11/03 06:56:08;;;;;;;1.00;1.00;;;;;;;4.54;92.36;95885.78;5011505;28;20160;-78
2023/11/03 06:58:34;;;;;;;0.90;0.90;;;;;;;4.51;92.23;95898.97;5010127;28;20737;-77
2023/11/03 07:01:00;;;;;;;0.80;0.80;;;;;;;4.55;92.80;95903.41;4993012;28;20040;-77
2023/11/03 07:03:26;;;;;;;0.70;0.70;;;;;;;4.57;92.77;95908.69;4990357;28;20040;-78
2023/11/03 07:05:52;;;;;;;0.80;0.80;;;;;;;4.65;92.74;95914.91;5003836;28;20053;-78
2023/11/03 07:08:19;;;;;;;0.80;0.80;;;;;;;4.70;92.62;95917.56;5010303;28;20117;-77
2023/11/03 07:10:44;;;;;;;0.80;0.80;;;;;;;4.77;92.49;95914.09;5006724;28;20137;-78
2023/11/03 07:13:11;;;;;;;0.70;0.70;;;;;;;4.76;92.29;95918.50;5009220;28;21138;-78
2023/11/03 07:15:36;;;;;;;0.80;0.80;;;;;;;4.95;92.50;95924.75;5010962;28;20046;-78
2023/11/03 07:18:02;;;;;;;0.70;0.70;;;;;;;4.88;92.53;95929.09;5007771;28;20036;-78
2023/11/03 07:20:30;;;;;;;0.70;0.70;;;;;;;4.98;92.52;95929.16;4996236;28;20065;-78
2023/11/03 07:22:56;;;;;;;0.73;0.73;;;;;;;5.02;92.47;95926.56;5004959;28;20097;-79
2023/11/03 07:25:25;;;;;;;0.70;0.70;;;;;;;4.99;92.16;95925.69;5010314;28;20060;-78
2023/11/03 07:27:51;;;;;;;0.80;0.80;;;;;;;4.91;92.09;95927.38;4990965;28;20045;-79
2023/11/03 07:30:16;;;;;;;0.80;0.80;;;;;;;4.85;92.16;95933.50;5013123;28;20494;-77
2023/11/03 07:32:44;;;;;;;0.80;0.80;;;;;;;4.88;92.18;95941.44;5007847;28;20038;-78
2023/11/03 07:35:13;;;;;;;0.90;0.90;;;;;;;4.95;92.30;95935.34;5007869;28;20061;-78
2023/11/03 07:37:39;;;;;;;0.80;0.80;;;;;;;5.05;92.75;95936.28;5009126;28;20765;-78
2023/11/03 07:40:05;;;;;;;0.80;0.80;;;;;;;5.07;92.20;95935.38;5007981;28;20043;-77
2023/11/03 07:42:31;;;;;;;0.70;0.70;;;;;;;5.11;92.51;95942.47;5005903;28;20038;-78
2023/11/03 07:44:56;;;;;;;0.80;0.80;;;;;;;5.20;92.35;95941.63;4988062;28;20026;-78
2023/11/03 07:47:22;;;;;;;0.80;0.80;;;;;;;5.25;92.57;95947.81;5008061;28;20048;-78
2023/11/03 07:49:49;;;;;;;0.75;0.75;;;;;;;5.29;91.63;95939.03;5008804;28;20560;-77
2023/11/03 07:52:15;;;;;;;;;;;;;;;5.53;91.88;95934.72;4996658;28;20383;-78
2023/11/03 07:54:41;;;;;;;0.80;0.80;;;;;;;5.48;91.71;95933.81;5010383;28;19921;-78
2023/11/03 07:57:06;;;;;;;0.75;0.75;;;;;;;5.53;91.75;95940.00;4974151;28;20046;-78
2023/11/03 07:59:32;;;;;;;0.80;0.80;;;;;;;5.73;91.33;95938.31;5006280;28;20415;-78
2023/11/03 08:01:57;;;;;;;0.70;0.70;;;;;;;5.76;91.58;95933.03;4994701;28;20471;-77
2023/11/03 08:04:23;;;;;;;0.70;0.70;;;;;;;5.77;91.85;95929.50;4996374;28;20463;-77
2023/11/03 08:06:49;;;;;;;0.70;0.70;;;;;;;5.87;91.17;95941.00;5008070;28;20029;-78
2023/11/03 08:09:15;;;;;;;0.80;0.80;;;;;;;5.94;90.46;95934.88;4994054;28;20033;-78
2023/11/03 08:11:40;;;;;;;0.70;0.70;;;;;;;5.97;90.70;95934.00;4990210;28;20048;-78
2023/11/03 08:14:06;;;;;;;0.70;0.70;;;;;;;6.12;89.90;95941.94;5010877;28;20068;-77
2023/11/03 08:16:31;;;;;;;0.80;0.80;;;;;;;6.11;89.60;95938.41;5012164;28;20033;-78
2023/11/03 08:18:58;;;;;;;0.80;0.80;;;;;;;6.11;89.57;95937.53;4996603;28;20041;-78
2023/11/03 08:21:24;;;;;;;0.80;0.80;;;;;;;6.09;89.61;95948.13;5010446;28;20041;-77
2023/11/03 08:23:51;;;;;;;0.77;0.77;;;;;;;6.32;89.32;95944.59;4996022;28;20490;-77
2023/11/03 08:26:17;;;;;;;0.80;0.80;;;;;;;6.22;89.25;95949.00;5007352;28;20084;-77
2023/11/03 08:28:45;;;;;;;0.70;0.70;;;;;;;6.32;88.85;95949.91;5014257;28;20472;-77
2023/11/03 08:31:12;;;;;;;0.80;0.80;;;;;;;6.45;88.13;95937.56;5010401;28;20037;-77
2023/11/03 08:33:37;;;;;;;0.73;0.73;;;;;;;6.51;88.35;95932.25;5007563;28;20069;-78
2023/11/03 08:36:03;;;;;;;0.70;0.70;;;;;;;6.64;88.18;95939.31;5006879;28;20048;-78
2023/11/03 08:38:28;;;;;;;0.73;0.73;;;;;;;6.69;87.72;95942.84;5007046;28;20490;-78
2023/11/03 08:40:54;;;;;;;0.80;0.80;;;;;;;6.71;87.95;95946.41;5004871;28;20041;-78
2023/11/03 08:43:22;;;;;;;0.80;0.80;;;;;;;6.83;87.35;95953.44;5005609;28;20776;-77
2023/11/03 08:45:49;;;;;;;0.80;0.80;;;;;;;6.90;86.42;95953.44;5009735;28;20490;-77
2023/11/03 08:48:16;;;;;;;0.80;0.80;;;;;;;7.08;86.15;95959.59;5005459;28;20599;-77
2023/11/03 08:50:41;;;;;;;0.80;0.80;;;;;;;6.99;86.81;95968.44;5005194;28;20037;-78
2023/11/03 08:53:07;;;;;;;0.80;0.80;;;;;;;7.16;86.21;95979.91;5007023;28;20042;-78
2023/11/03 08:55:33;;;;;;;0.70;0.70;;;;;;;7.21;86.00;95974.59;5004960;28;20037;-78
2023/11/03 08:57:59;;;;;;;0.70;0.70;;;;;;;7.26;85.74;95982.53;5007003;28;20499;-76
2023/11/03 09:00:26;;;;;;;0.70;0.70;;;;;;;7.31;86.36;95981.63;5010864;28;21392;-77
2023/11/03 09:02:51;;;;;;;0.70;0.70;;;;;;;7.07;84.36;95987.88;4993663;28;21043;-77
2023/11/03 09:05:17;;;;;;;0.70;0.70;;;;;;;7.26;85.88;95988.72;5009860;28;20034;-77
2023/11/03 09:07:44;;;;;;;0.70;0.70;;;;;;;7.57;85.87;95991.28;5007424;28;20038;-77
2023/11/03 09:10:10;;;;;;;0.70;0.70;;;;;;;7.52;84.71;95990.41;5003198;28;20045;-77
2023/11/03 09:12:37;;;;;;;0.60;0.60;;;;;;;7.88;85.84;95995.56;5008090;28;20125;-80
2023/11/03 09:15:04;;;;;;;0.70;0.70;;;;;;;7.99;84.54;95987.56;4994254;28;20159;-81
2023/11/03 09:17:31;;;;;;;0.70;0.70;;;;;;;8.08;84.57;95984.84;5012793;28;20025;-81
2023/11/03 09:19:58;;;;;;;0.65;0.65;;;;;;;8.16;84.30;95985.72;5006279;28;20077;-82
2023/11/03 09:22:24;;;;;;;;;;;;;;;8.40;83.62;95984.72;5005486;28;20041;-82
2023/11/03 09:24:53;;;;;;;0.60;0.60;;;;;;;8.28;81.80;95975.88;5003498;28;19924;-82
2023/11/03 09:27:19;;;;;;;0.60;0.60;;;;;;;8.10;80.92;95977.78;5004622;28;20202;-82
2023/11/03 09:29:46;;;;;;;0.60;0.60;;;;;;;8.10;82.96;95976.91;4974455;28;20042;-81
2023/11/03 09:32:12;;;;;;;0.70;0.70;;;;;;;8.18;80.09;95975.94;4981786;28;20045;-82
2023/11/03 09:34:38;;;;;;;0.70;0.70;;;;;;;8.02;81.86;95974.28;5008934;28;20042;-82
2023/11/03 09:37:04;;;;;;;0.70;0.70;;;;;;;8.16;81.11;95976.84;5010352;28;20052;-82
2023/11/03 09:39:30;;;;;;;0.70;0.70;;;;;;;8.39;80.16;95974.09;5008675;28;20100;-81
2023/11/03 09:42:02;;;;;;;0.70;0.70;;;;;;;8.51;77.68;95967.81;4998284;28;20042;-81
2023/11/03 09:44:30;;;;;;;0.70;0.70;;;;;;;8.50;76.77;95976.69;5013581;28;20128;-82
2023/11/03 09:46:59;;;;;;;0.70;0.70;;;;;;;8.50;78.27;95974.91;5010366;28;20054;-82
2023/11/03 09:49:25;;;;;;;0.70;0.70;;;;;;;8.68;77.16;95971.22;5009768;28;20033;-80
2023/11/03 09:51:50;;;;;;;0.70;0.70;;;;;;;8.73;77.59;95964.97;5010147;28;20445;-78
2023/11/03 09:54:16;;;;;;;0.70;0.70;;;;;;;8.84;76.13;95959.56;4998935;28;20048;-78
2023/11/03 09:56:45;;;;;;;0.60;0.60;;;;;;;8.86;75.88;95963.09;5012259;28;20037;-78
2023/11/03 09:59:17;;;;;;;0.63;0.63;;;;;;;8.83;75.18;95967.56;5012155;28;20038;-78
2023/11/03 10:01:43;;;;;;;0.60;0.60;;;;;;;8.72;72.74;95959.69;5014984;28;20048;-77
2023/11/03 10:04:09;;;;;;;0.70;0.70;;;;;;;8.59;71.97;95965.97;5010976;28;20033;-78
2023/11/03 10:06:39;;;;;;;0.70;0.70;;;;;;;8.59;72.62;95952.69;5009422;28;20038;-77
2023/11/03 10:09:12;;;;;;;0.70;0.70;;;;;;;8.96;72.21;95961.25;4983955;28;20502;-78
2023/11/03 10:11:40;;;;;;;0.70;0.70;;;;;;;8.91;72.20;95963.94;5009176;28;20483;-78
2023/11/03 10:14:06;;;;;;;0.63;0.63;;;;;;;9.08;71.26;95962.88;5001234;28;20037;-77
2023/11/03 10:16:31;;;;;;;0.68;0.68;;;;;;;9.17;70.34;95965.47;5008024;28;20048;-78
2023/11/03 10:18:57;;;;;;;0.60;0.60;;;;;;;9.25;70.29;95948.53;5012938;28;20044;-79
2023/11/03 10:21:23;;;;;;;0.60;0.60;;;;;;;9.36;69.64;95951.06;5009719;28;20150;-78
2023/11/03 10:23:49;;;;;;;0.60;0.60;;;;;;;9.30;69.15;95960.91;4998385;28;20079;-79
2023/11/03 10:26:14;;;;;;;0.60;0.60;;;;;;;9.23;68.45;95945.00;5009075;28;20033;-79
2023/11/03 10:28:41;;;;;;;0.70;0.70;;;;;;;9.23;68.17;95942.31;4995654;28;20022;-79
2023/11/03 10:31:07;;;;;;;0.70;0.70;;;;;;;9.31;68.18;95946.69;5000408;28;20376;-78
2023/11/03 10:33:34;;;;;;;0.70;0.70;;;;;;;9.33;68.22;95940.44;4994850;28;20042;-79
2023/11/03 10:36:01;;;;;;;;;;;;;;;9.31;68.15;95947.59;5010795;28;20044;-79
2023/11/03 10:38:27;;;;;;;;;;;;;;;9.34;68.50;95947.56;4997409;28;20274;-78
2023/11/03 10:40:54;;;;;;;0.70;0.70;;;;;;;9.38;68.28;95941.28;5013805;28;19918;-79
2023/11/03 10:43:23;;;;;;;0.60;0.60;;;;;;;9.24;68.37;95948.53;5014128;28;20132;-79
2023/11/03 10:46:20;;;;;;;0.60;0.60;;;;;;;9.38;68.57;95943.94;5011276;28;20112;-78
2023/11/03 10:48:46;;;;;;;;;;;;;;;9.38;67.84;95953.69;4999888;28;20045;-78
2023/11/03 10:51:38;;;;;;;0.70;0.70;;;;;;;9.17;67.76;95954.81;5014574;28;19925;-81
2023/11/03 10:54:26;;;;;;;0.70;0.70;;;;;;;9.24;67.75;95945.88;5011011;28;20057;-78
2023/11/03 10:56:52;;;;;;;0.70;0.70;;;;;;;9.45;67.85;95945.66;5012701;28;20090;-80
2023/11/03 10:59:19;;;;;;;0.70;0.70;;;;;;;9.56;67.53;95940.19;5016185;28;20041;-79
2023/11/03 11:01:54;;;;;;;0.70;0.70;;;;;;;9.85;66.19;95931.84;5015443;28;20041;-79
2023/11/03 11:04:50;;;;;;;0.60;0.60;;;;;;;10.01;66.78;95933.41;5007783;28;20042;-79
2023/11/03 11:07:19;;;;;;;0.63;0.63;;;;;;;9.79;66.38;95929.25;4992362;28;20058;-81
2023/11/03 11:09:45;;;;;;;0.60;0.60;;;;;;;10.10;65.74;95937.72;5011749;28;20132;-80
2023/11/03 11:12:13;;;;;;;0.60;0.60;;;;;;;10.18;65.70;95938.50;5006414;28;20034;-80
2023/11/03 11:14:41;;;;;;;0.63;0.63;;;;;;;9.83;65.69;95940.78;5013593;28;20065;-79
2023/11/03 11:17:13;;;;;;;0.60;0.60;;;;;;;9.83;66.20;95936.31;5010420;28;20050;-80
2023/11/03 11:19:43;;;;;;;0.70;0.70;;;;;;;10.03;65.29;95936.94;5008477;28;20038;-80
2023/11/03 11:22:13;;;;;;;0.60;0.60;;;;;;;10.14;65.44;95933.22;5006863;28;20046;-79
2023/11/03 11:24:40;;;;;;;0.60;0.60;;;;;;;9.99;66.01;95944.97;5010874;28;20037;-79
2023/11/03 11:27:18;;;;;;;0.70;0.70;;;;;;;9.84;64.93;95938.06;5011948;28;20806;-79
2023/11/03 11:29:46;;;;;;;0.60;0.60;;;;;;;9.71;64.58;95944.44;4980654;28;20632;-79
2023/11/03 11:32:12;;;;;;;0.70;0.70;;;;;;;9.64;65.36;95958.75;5005339;28;20034;-78
2023/11/03 11:34:40;;;;;;;0.60;0.60;;;;;;;9.82;66.02;95947.88;5011075;28;20088;-78
2023/11/03 11:37:29;;;;;;;0.60;0.60;;;;;;;9.92;65.33;95949.53;4982873;28;20661;-78
2023/11/03 11:40:03;;;;;;;0.60;0.60;;;;;;;9.86;65.03;95952.22;5006667;28;20083;-76
2023/11/03 11:42:30;;;;;;;0.70;0.70;;;;;;;10.10;65.76;95953.69;4986654;28;20503;-81